Villa Cisneros, Western Sahara
Current Conditions -  °F | °C
As of 9:00 PM on Monday 22 Dec 2014 (Local Time) from GMMH Reporting Station
Clear Clear  
Wind Chill: 63°   Ceiling: Unl
Heat Index: 63°   Visibility: 3mi
Dew Point: 59°   Wind: 6mph
Humidity: 88%   Direction: 340°NNW
Pressure: 30"   Gusts: NA
Location:  23.7°N, 15.94°W
Report Text: GMMH 222100Z 34005KT 5000 NSC 17/15 Q1016 NOSIG
Loading
Personal Weather Stations






























Interactive Weather Map New forecast layout! Learn more

10-Day Weather Forecast

Advertisements
Track Severe Weather on mobile